Flight Track Log - Related Links

Times and Time Zones

All times are in EDT time to prevent confusion due to time zone crossing. See the ASQ4345 flight status page for this flight to view local times or setup timezone preferences in your user account.

Time Position Orientation Groundspeed Altitude Reporting Facility
EDT Latitude Longitude Course Direction KTS MPH feet Rate Location/Type
Sun 10:09:58 AM 29.9661 -95.3456 206° Southwest 137 158 700  Level Houston Center
Sun 10:10:47 AM 29.9419 -95.3097 128° Southeast 186 214 2,600 1,926 Climbing Houston Center
Sun 10:11:19 AM 29.9308 -95.2908 124° Southeast 186 214 3,300 1,377 Climbing Houston Center
Sun 10:11:48 AM 29.9028 -95.2494 128° Southeast 272 313 4,000 677 Climbing Houston Center
Sun 10:12:21 AM 29.8867 -95.2197 122° Southeast 261 300 4,000  Level Houston Center
Sun 10:12:37 AM 29.8653 -95.1867 127° Southeast 281 323 4,000  Level Houston Center
Sun 10:13:00 AM 29.6661 -95.5087 209° Southwest  Level FlightAware Approximate
Sun 10:13:22 AM 29.8419 -95.1461 124° Southeast 278 320 4,000  Level Houston Center
Sun 10:13:38 AM 29.8172 -95.1203 138° Southeast 260 299 4,900 2,262 Climbing Houston Center
Sun 10:14:00 AM 29.5885 -95.5564 206° Southwest  Level FlightAware Approximate
Sun 10:14:23 AM 29.7819 -95.1119 168° South 250 288 6,300  Level Houston Center
Sun 10:14:45 AM 29.7378 -95.1033 170° South 272 313 7,400 2,361 Climbing Houston Center
Sun 10:15:00 AM 29.5093 -95.6004 206° Southwest  Level FlightAware Approximate
Sun 10:15:24 AM 29.7044 -95.0956 169° South 274 315 8,700  Level Houston Center
Sun 10:15:47 AM 29.6586 -95.0867 170° South 286 329 10,200 1,839 Climbing Houston Center
Sun 10:16:26 AM 29.6219 -95.0803 171° South 288 331 10,600 1,080 Climbing Houston Center
Sun 10:17:27 AM 29.5481 -95.1453 217° Southwest 329 379 12,000 1,770 Climbing Houston Center
Sun 10:18:28 AM 29.4936 -95.2308 234° Southwest 327 376 14,200 1,902 Climbing Houston Center
Sun 10:19:30 AM 29.4378 -95.3133 232° Southwest 324 373 15,900 1,512 Climbing Houston Center
Sun 10:20:31 AM 29.3681 -95.4175 232° Southwest 341 392 17,300 1,328 Climbing Houston Center
Sun 10:21:32 AM 29.3058 -95.5092 232° Southwest 361 415 18,600 1,268 Climbing Houston Center
Sun 10:22:34 AM 29.2431 -95.6028 232° Southwest 370 426 19,900 1,258 Climbing Houston Center
Sun 10:23:36 AM 29.1789 -95.6967 232° Southwest 374 430 21,200 1,033 Climbing Houston Center
Sun 10:24:36 AM 29.1125 -95.7950 232° Southwest 388 447 22,000 393 Climbing Houston Center
Sun 10:25:38 AM 29.0428 -95.8989 233° Southwest 411 473 22,000  Level Houston Center
Sun 10:26:39 AM 28.9597 -96.0175 231° Southwest 418 481 22,000  Level Houston Center
Sun 10:27:41 AM 28.8894 -96.1233 233° Southwest 418 481 22,000  Level Houston Center
Sun 10:28:42 AM 28.8186 -96.2278 232° Southwest 416 479 22,000  Level Houston Center
Sun 10:29:44 AM 28.7428 -96.3319 230° Southwest 422 486 22,000  Level Houston Center
Sun 10:30:45 AM 28.6592 -96.4303 226° Southwest 428 493 22,000 -197 Level Houston Center
Sun 10:31:46 AM 28.5736 -96.5283 225° Southwest 433 498 21,600 -1,366 Descending Houston Center
Sun 10:32:48 AM 28.4928 -96.6253 227° Southwest 423 487 19,200 -2,672 Descending Houston Center
Sun 10:33:45 AM 28.4167 -96.7139 226° Southwest 385 443 16,300 -2,887 Descending Houston Center
Sun 10:34:34 AM 28.3608 -96.7792 226° Southwest 360 414 14,100 -2,455 Descending Houston Center
Sun 10:34:51 AM 28.3508 -96.7903 224° Southwest 363 418 13,600 -1,600 Descending Houston Center
Sun 10:35:34 AM 28.2944 -96.8625 228° Southwest 346 398 12,500 -1,180 Descending Houston Center
Sun 10:35:52 AM 28.2908 -96.8744 251° West 352 405 12,400 -655 Descending Houston Center
Sun 10:36:29 AM 28.2553 -96.9442 240° Southwest 331 381 11,900 -677 Descending Houston Center
Sun 10:36:54 AM 28.2378 -96.9836 243° Southwest 333 383 11,700 -689 Descending Houston Center
Sun 10:37:30 AM 28.2111 -97.0383 241° Southwest 323 372 11,200 -787 Descending Houston Center
Sun 10:37:55 AM 28.1961 -97.0717 243° Southwest 323 372 10,900 -667 Descending Houston Center
Sun 10:38:24 AM 28.1733 -97.1150 239° Southwest 322 371 10,600 -581 Descending Houston Center
Sun 10:38:57 AM 28.1533 -97.1603 243° Southwest 321 369 10,300 -492 Descending Houston Center
Sun 10:39:25 AM 28.1336 -97.1942 237° Southwest 299 344 10,100 -885 Descending Houston Center
Sun 10:39:58 AM 28.1172 -97.2389 247° West 298 343 9,400 -1,500 Descending Houston Center
Sun 10:40:25 AM 28.0975 -97.2681 233° Southwest 260 299 8,600 -1,645 Descending Houston Center
Sun 10:41:00 AM 28.0847 -97.3086 250° West 277 319 7,700 -1,770 Descending Houston Center
Sun 10:41:26 AM 28.0633 -97.3394 232° Southwest 249 287 6,800 -1,770 Descending Houston Center
Sun 10:42:01 AM 28.0506 -97.3744 248° West 259 298 5,900 -1,869 Descending Houston Center
Sun 10:42:27 AM 28.0306 -97.4056 234° Southwest 248 285 4,900 -1,839 Descending Houston Center
Sun 10:43:03 AM 28.0164 -97.4406 245° Southwest 251 289 4,000 -1,700 Descending Houston Center
Sun 10:43:27 AM 27.9942 -97.4769 235° Southwest 249 287 3,200 -689 Descending Houston Center
Sun 10:44:04 AM 27.9739 -97.5203 242° Southwest 250 288 3,300 -984 Climbing Houston Center
Sun 10:44:28 AM 27.9622 -97.5336 225° Southwest 239 275 2,200 -929 Descending Houston Center
Sun 10:45:28 AM 27.9136 -97.5900 226° Southwest 233 268 2,000 -99 Descending Houston Center
Sun 10:46:29 AM 27.8642 -97.5989 189° South 206 237 2,000  Level Houston Center

Login

Don't have an account? Register now (free) for customized features, flight alerts, and more!